Time;durP1;ratioP1;P1;durP2;ratioP2;P2;SDS_P1;SDS_P2;PMS_P1;PMS_P2;Temp;Humidity;BMP_temperature;BMP_pressure;BME280_temperature;BME280_humidity;BME280_pressure;Samples;Min_cycle;Max_cycle;Signal;HPM_P1;HPM_P2
2022/03/11 00:00:37;;;;;;;;;;;;;;;16.71;58.85;99422.72;2078551;28;20445;-58
2022/03/11 00:01:38;;;;;;;;;;;;;;;16.71;58.91;99424.59;2076390;28;19941;-58
2022/03/11 00:02:39;;;;;;;;;;;;;;;16.70;58.90;99420.25;2073402;28;19947;-57
2022/03/11 00:03:40;;;;;;;;;;;;;;;16.69;58.77;99424.78;2073671;28;19925;-58
2022/03/11 00:04:41;;;;;;;;;;;;;;;16.69;58.97;99424.78;2072344;28;20321;-58
2022/03/11 00:05:43;;;;;;;;;;;;;;;16.67;58.81;99424.09;2072028;28;20445;-54
2022/03/11 00:06:43;;;;;;;;;;;;;;;16.67;58.89;99424.09;2067983;28;20445;-56
2022/03/11 00:07:45;;;;;;;;;;;;;;;16.67;58.82;99426.78;2072595;28;19925;-54
2022/03/11 00:08:45;;;;;;;;;;;;;;;16.67;58.77;99434.81;2076354;28;19967;-56
2022/03/11 00:09:47;;;;;;;;;;;;;;;16.66;58.85;99430.47;2075847;28;19925;-56
2022/03/11 00:10:47;;;;;;;;;;;;;;;16.65;58.89;99426.09;2072329;28;20395;-55
2022/03/11 00:11:49;;;;;;;;;;;;;;;16.64;58.87;99429.81;2075315;28;19930;-56
2022/03/11 00:12:49;;;;;;;;;;;;;;;16.64;58.89;99427.13;2075331;28;20412;-57
2022/03/11 00:13:52;;;;;;;;;;;;;;;16.64;58.84;99426.28;2072701;28;19936;-55
2022/03/11 00:14:53;;;;;;;;;;;;;;;16.62;59.00;99429.13;2070348;28;20345;-58
2022/03/11 00:15:55;;;;;;;;;;;;;;;16.63;58.91;99419.25;2070921;28;19929;-55
2022/03/11 00:16:55;;;;;;;;;;;;;;;16.61;58.88;99422.13;2075954;28;19978;-58
2022/03/11 00:17:57;;;;;;;;;;;;;;;16.62;58.92;99428.31;2074194;28;19992;-58
2022/03/11 00:18:57;;;;;;;;;;;;;;;16.60;58.88;99424.94;2068804;28;19926;-58
2022/03/11 00:19:59;;;;;;;;;;;;;;;16.59;58.91;99426.78;2072808;28;19960;-55
2022/03/11 00:20:59;;;;;;;;;;;;;;;16.59;58.88;99429.47;2070807;28;20433;-58
2022/03/11 00:22:01;;;;;;;;;;;;;;;16.59;58.89;99424.13;2071924;28;19975;-53
2022/03/11 00:23:02;;;;;;;;;;;;;;;16.58;58.96;99430.50;2065553;28;19930;-58
2022/03/11 00:24:03;;;;;;;;;;;;;;;16.57;58.93;99426.13;2073809;28;20330;-57
2022/03/11 00:25:05;;;;;;;;;;;;;;;16.57;58.88;99427.97;2074736;28;19982;-56
2022/03/11 00:26:06;;;;;;;;;;;;;;;16.56;58.90;99418.28;2072753;28;19940;-56
2022/03/11 00:27:07;;;;;;;;;;;;;;;16.56;58.99;99429.81;2070078;28;20407;-58
2022/03/11 00:28:08;;;;;;;;;;;;;;;16.54;58.88;99431.81;2069973;28;20381;-58
2022/03/11 00:29:11;;;;;;;;;;;;;;;16.54;58.97;99421.94;2071559;28;19949;-57
2022/03/11 00:30:12;;;;;;;;;;;;;;;16.53;58.96;99425.63;2073859;28;20349;-53
2022/03/11 00:31:13;;;;;;;;;;;;;;;16.52;58.79;99423.16;2073179;28;19933;-58
2022/03/11 00:32:14;;;;;;;;;;;;;;;16.51;59.02;99426.81;2068318;28;19928;-57
2022/03/11 00:33:15;;;;;;;;;;;;;;;16.52;58.95;99432.00;2072843;28;19929;-56
2022/03/11 00:34:17;;;;;;;;;;;;;;;16.50;58.97;99422.47;2074170;28;19933;-56
2022/03/11 00:35:20;;;;;;;;;;;;;;;16.49;59.00;99421.66;2075020;28;20322;-63
2022/03/11 00:36:22;;;;;;;;;;;;;;;16.47;58.99;99415.63;2071916;28;19984;-57
2022/03/11 00:37:24;;;;;;;;;;;;;;;16.47;58.95;99414.78;2071317;28;19931;-58
2022/03/11 00:38:26;;;;;;;;;;;;;;;16.47;58.96;99409.44;2072765;28;19987;-55
2022/03/11 00:39:27;;;;;;;;;;;;;;;16.46;58.98;99418.44;2075094;28;19926;-56
2022/03/11 00:40:29;;;;;;;;;;;;;;;16.45;59.02;99411.44;2073801;28;19952;-57
2022/03/11 00:41:29;;;;;;;;;;;;;;;16.44;58.99;99415.97;2066109;28;20756;-57
2022/03/11 00:42:31;;;;;;;;;;;;;;;16.43;59.03;99414.28;2070749;28;19936;-57
2022/03/11 00:43:31;;;;;;;;;;;;;;;16.44;59.07;99409.78;2076367;28;20290;-56
2022/03/11 00:44:35;;;;;;;;;;;;;;;16.42;59.02;99417.13;2075023;28;19983;-54
2022/03/11 00:45:35;;;;;;;;;;;;;;;16.42;59.10;99414.47;2071553;28;19949;-56
2022/03/11 00:46:37;;;;;;;;;;;;;;;16.41;59.04;99408.28;2072679;28;20035;-54
2022/03/11 00:47:37;;;;;;;;;;;;;;;16.40;59.11;99408.44;2076584;28;19933;-56
2022/03/11 00:48:39;;;;;;;;;;;;;;;16.40;59.12;99408.44;2073293;28;20427;-55
2022/03/11 00:49:39;;;;;;;;;;;;;;;16.40;59.03;99413.78;2075619;28;19988;-58
2022/03/11 00:50:41;;;;;;;;;;;;;;;16.39;59.05;99414.78;2073865;28;19960;-58
2022/03/11 00:51:42;;;;;;;;;;;;;;;16.39;59.04;99412.13;2065951;28;19925;-57
2022/03/11 00:52:43;;;;;;;;;;;;;;;16.37;58.97;99409.59;2070076;28;19929;-56
2022/03/11 00:53:44;;;;;;;;;;;;;;;16.37;59.05;99416.81;2074232;28;19930;-58
2022/03/11 00:54:45;;;;;;;;;;;;;;;16.36;59.11;99407.09;2075351;28;19925;-56
2022/03/11 00:55:46;;;;;;;;;;;;;;;16.36;59.04;99409.78;2073315;28;20292;-57
2022/03/11 00:56:47;;;;;;;;;;;;;;;16.35;59.15;99410.78;2070488;28;19929;-56
2022/03/11 00:57:48;;;;;;;;;;;;;;;16.35;59.07;99411.59;2073049;28;19948;-56
2022/03/11 00:58:49;;;;;;;;;;;;;;;16.34;59.11;99406.44;2072573;28;20019;-58
2022/03/11 00:59:51;;;;;;;;;;;;;;;16.33;59.08;99410.97;2063735;28;19929;-56
2022/03/11 01:00:53;;;;;;;;;;;;;;;16.31;59.07;99408.44;2070885;28;19930;-56
2022/03/11 01:01:53;;;;;;;;;;;;;;;16.31;59.13;99403.09;2072492;28;19929;-57
2022/03/11 01:02:55;;;;;;;;;;;;;;;16.30;59.12;99404.09;2071173;28;19929;-60
2022/03/11 01:03:55;;;;;;;;;;;;;;;16.31;59.17;99404.94;2071995;28;20027;-55
2022/03/11 01:04:57;;;;;;;;;;;;;;;16.29;59.15;99407.75;2073849;28;19929;-59
2022/03/11 01:05:57;;;;;;;;;;;;;;;16.28;59.08;99406.09;2070991;28;19948;-60
2022/03/11 01:06:59;;;;;;;;;;;;;;;16.28;59.13;99400.75;2074540;28;19929;-60
2022/03/11 01:07:59;;;;;;;;;;;;;;;16.27;59.15;99401.78;2073666;28;19925;-56
2022/03/11 01:09:01;;;;;;;;;;;;;;;16.26;59.21;99400.06;2064411;28;19929;-60
2022/03/11 01:10:02;;;;;;;;;;;;;;;16.26;59.07;99405.44;2073097;28;20719;-60
2022/03/11 01:11:05;;;;;;;;;;;;;;;16.27;59.14;99393.75;2076137;28;19925;-57
2022/03/11 01:12:06;;;;;;;;;;;;;;;16.26;59.18;99396.56;2068897;28;20044;-56
2022/03/11 01:13:08;;;;;;;;;;;;;;;16.24;59.20;99391.41;2071409;28;19925;-58
2022/03/11 01:14:08;;;;;;;;;;;;;;;16.25;59.14;99395.75;2074256;28;20322;-60
2022/03/11 01:15:12;;;;;;;;;;;;;;;16.24;59.26;99390.53;2074289;28;19925;-59
2022/03/11 01:16:12;;;;;;;;;;;;;;;16.24;59.26;99394.06;2070733;28;20215;-59
2022/03/11 01:17:14;;;;;;;;;;;;;;;16.22;59.31;99398.75;2072560;28;20287;-59
2022/03/11 01:18:14;;;;;;;;;;;;;;;16.22;59.23;99389.91;2073670;28;19939;-60
2022/03/11 01:19:16;;;;;;;;;;;;;;;16.21;59.28;99388.22;2069457;28;19995;-57
2022/03/11 01:20:17;;;;;;;;;;;;;;;16.21;59.28;99385.53;2067446;28;19929;-59
2022/03/11 01:21:18;;;;;;;;;;;;;;;16.20;59.16;99384.69;2076476;28;20441;-66
2022/03/11 01:22:20;;;;;;;;;;;;;;;16.19;59.18;99380.38;2072436;28;19926;-56
2022/03/11 01:23:21;;;;;;;;;;;;;;;16.18;59.12;99381.34;2072684;28;19930;-57
2022/03/11 01:24:22;;;;;;;;;;;;;;;16.19;59.23;99382.22;2073833;28;19960;-59
2022/03/11 01:25:23;;;;;;;;;;;;;;;16.17;59.17;99382.38;2077081;28;19927;-57
2022/03/11 01:26:24;;;;;;;;;;;;;;;16.15;59.12;99373.66;2074403;28;19929;-59
2022/03/11 01:27:25;;;;;;;;;;;;;;;16.16;59.18;99378.03;2071899;28;19977;-58
2022/03/11 01:28:27;;;;;;;;;;;;;;;16.14;59.23;99374.69;2068756;28;19930;-59
2022/03/11 01:29:27;;;;;;;;;;;;;;;16.15;59.17;99372.84;2076734;28;20007;-58
2022/03/11 01:30:30;;;;;;;;;;;;;;;16.15;59.28;99379.03;2072229;28;19929;-58
2022/03/11 01:31:31;;;;;;;;;;;;;;;16.13;59.21;99377.50;2072475;28;20383;-57
2022/03/11 01:32:32;;;;;;;;;;;;;;;16.12;59.27;99374.00;2073290;28;19929;-59
2022/03/11 01:33:33;;;;;;;;;;;;;;;16.12;59.38;99371.31;2072862;28;20005;-59
2022/03/11 01:34:34;;;;;;;;;;;;;;;16.12;59.26;99373.19;2070833;28;19929;-55
2022/03/11 01:35:35;;;;;;;;;;;;;;;16.11;59.31;99377.69;2073926;28;20028;-59
2022/03/11 01:36:37;;;;;;;;;;;;;;;16.10;59.25;99376.00;2074028;28;19925;-54
2022/03/11 01:37:37;;;;;;;;;;;;;;;16.10;59.25;99376.00;2068214;28;19983;-60
2022/03/11 01:38:39;;;;;;;;;;;;;;;16.10;59.21;99376.00;2074521;28;19987;-57
2022/03/11 01:39:39;;;;;;;;;;;;;;;16.08;59.25;99370.84;2076727;28;20021;-59
2022/03/11 01:40:41;;;;;;;;;;;;;;;16.07;59.29;99374.53;2071870;28;19929;-58
2022/03/11 01:41:41;;;;;;;;;;;;;;;16.06;59.37;99377.38;2071685;28;20326;-59
2022/03/11 01:42:43;;;;;;;;;;;;;;;16.06;59.39;99380.88;2066218;28;20693;-59
2022/03/11 01:43:50;;;;;;;;;;;;;;;16.05;59.35;99376.53;2070954;28;19968;-57
2022/03/11 01:44:53;;;;;;;;;;;;;;;16.05;59.37;99378.38;2074202;28;19929;-55
2022/03/11 01:45:55;;;;;;;;;;;;;;;16.04;59.32;99372.16;2072156;28;20260;-56
2022/03/11 01:46:56;;;;;;;;;;;;;;;16.05;59.36;99378.38;2069769;28;19933;-61
2022/03/11 01:47:57;;;;;;;;;;;;;;;16.04;59.36;99374.00;2072100;28;20324;-57
2022/03/11 01:48:59;;;;;;;;;;;;;;;16.03;59.35;99375.03;2065552;28;19935;-58
2022/03/11 01:50:00;;;;;;;;;;;;;;;16.03;59.37;99380.38;2070591;28;20008;-58
2022/03/11 01:51:01;;;;;;;;;;;;;;;16.02;59.36;99373.38;2072345;28;20034;-52
2022/03/11 01:52:02;;;;;;;;;;;;;;;16.01;59.32;99379.72;2071919;28;20387;-57
2022/03/11 01:53:04;;;;;;;;;;;;;;;16.01;59.43;99377.03;2072594;28;19931;-56
2022/03/11 01:54:05;;;;;;;;;;;;;;;16.00;59.37;99378.03;2070390;28;19929;-55
2022/03/11 01:55:07;;;;;;;;;;;;;;;15.99;59.44;99381.72;2067912;28;20430;-56
2022/03/11 01:56:07;;;;;;;;;;;;;;;15.99;59.33;99379.03;2072221;28;20008;-55
2022/03/11 01:57:09;;;;;;;;;;;;;;;15.98;59.45;99366.66;2067147;28;20402;-57
2022/03/11 01:58:11;;;;;;;;;;;;;;;15.98;59.43;99377.38;2067621;28;19933;-55
2022/03/11 01:59:12;;;;;;;;;;;;;;;15.97;59.47;99376.53;2072305;28;19936;-55
2022/03/11 02:00:13;;;;;;;;;;;;;;;15.97;59.59;99378.38;2072257;28;20427;-56
2022/03/11 02:01:16;;;;;;;;;;;;;;;15.97;59.47;99373.03;2069836;28;19933;-55
2022/03/11 02:02:17;;;;;;;;;;;;;;;15.96;59.48;99377.53;2071949;28;19933;-56
2022/03/11 02:03:19;;;;;;;;;;;;;;;15.95;59.45;99378.53;2070826;28;20000;-58
2022/03/11 02:04:19;;;;;;;;;;;;;;;15.94;59.43;99371.53;2063709;28;19925;-55
2022/03/11 02:05:21;;;;;;;;;;;;;;;15.93;59.48;99374.34;2071894;28;19929;-56
2022/03/11 02:06:22;;;;;;;;;;;;;;;15.93;59.41;99379.72;2071624;28;19925;-56
2022/03/11 02:07:23;;;;;;;;;;;;;;;15.92;59.55;99378.06;2064608;28;19940;-57
2022/03/11 02:08:24;;;;;;;;;;;;;;;15.91;59.43;99374.53;2069728;28;19987;-56
2022/03/11 02:09:25;;;;;;;;;;;;;;;15.91;59.51;99377.22;2063463;28;20771;-56
2022/03/11 02:10:26;;;;;;;;;;;;;;;15.92;59.42;99383.41;2072408;28;19974;-55
2022/03/11 02:11:27;;;;;;;;;;;;;;;15.91;59.51;99371.00;2073022;28;19929;-55
2022/03/11 02:12:29;;;;;;;;;;;;;;;15.90;59.46;99380.03;2069391;28;20024;-56
2022/03/11 02:13:41;;;;;;;;;;;;;;;15.88;59.38;99377.56;2074901;28;20016;-56
2022/03/11 02:14:42;;;;;;;;;;;;;;;15.88;59.37;99382.03;2074035;28;20027;-56
2022/03/11 02:15:44;;;;;;;;;;;;;;;15.86;59.42;99380.38;2072408;28;19925;-56
2022/03/11 02:16:46;;;;;;;;;;;;;;;15.88;59.48;99388.25;2071373;28;19936;-55
2022/03/11 02:17:47;;;;;;;;;;;;;;;15.85;59.49;99386.75;2072080;28;19926;-57
2022/03/11 02:18:48;;;;;;;;;;;;;;;15.85;59.58;99386.75;2064810;28;19936;-56
2022/03/11 02:19:50;;;;;;;;;;;;;;;15.84;59.50;99385.06;2069021;28;19953;-54
2022/03/11 02:20:50;;;;;;;;;;;;;;;15.86;59.43;99387.59;2070161;28;20019;-57
2022/03/11 02:21:53;;;;;;;;;;;;;;;15.83;59.52;99388.75;2072245;28;19933;-55
2022/03/11 02:22:54;;;;;;;;;;;;;;;15.82;59.50;99384.41;2069502;28;19925;-55
2022/03/11 02:23:58;;;;;;;;;;;;;;;15.82;59.56;99383.56;2072585;28;19929;-56
2022/03/11 02:24:58;;;;;;;;;;;;;;;15.81;59.56;99385.41;2069814;28;20603;-55
2022/03/11 02:26:00;;;;;;;;;;;;;;;15.81;59.61;99390.75;2072440;28;19925;-55
2022/03/11 02:27:00;;;;;;;;;;;;;;;15.81;59.58;99389.91;2072421;28;20398;-55
2022/03/11 02:28:02;;;;;;;;;;;;;;;15.79;59.57;99384.72;2068781;28;19930;-56
2022/03/11 02:29:03;;;;;;;;;;;;;;;15.78;59.52;99380.38;2068268;28;20188;-53
2022/03/11 02:30:05;;;;;;;;;;;;;;;15.80;59.59;99388.25;2076074;28;19935;-56
2022/03/11 02:31:05;;;;;;;;;;;;;;;15.78;59.60;99382.22;2075566;28;20237;-54
2022/03/11 02:32:08;;;;;;;;;;;;;;;15.77;59.65;99383.25;2068260;28;19937;-52
2022/03/11 02:33:09;;;;;;;;;;;;;;;15.77;59.65;99380.56;2071996;28;19980;-53
2022/03/11 02:34:11;;;;;;;;;;;;;;;15.76;59.59;99382.38;2074483;28;20334;-56
2022/03/11 02:35:11;;;;;;;;;;;;;;;15.76;59.58;99378.88;2068530;28;20009;-57
2022/03/11 02:36:13;;;;;;;;;;;;;;;15.76;59.54;99385.06;2072675;28;19925;-58
2022/03/11 02:37:14;;;;;;;;;;;;;;;15.74;59.59;99379.06;2067104;28;19929;-58
2022/03/11 02:38:15;;;;;;;;;;;;;;;15.74;59.65;99384.41;2073943;28;19925;-57
2022/03/11 02:39:17;;;;;;;;;;;;;;;15.73;59.63;99385.38;2071171;28;19933;-57
2022/03/11 02:40:18;;;;;;;;;;;;;;;15.74;59.67;99378.19;2069099;28;19926;-59
2022/03/11 02:41:19;;;;;;;;;;;;;;;15.72;59.66;99381.06;2068576;28;19929;-58
2022/03/11 02:42:21;;;;;;;;;;;;;;;15.72;59.64;99383.72;2074602;28;19929;-57
2022/03/11 02:43:21;;;;;;;;;;;;;;;15.71;59.79;99381.22;2070660;28;19937;-55
2022/03/11 02:44:23;;;;;;;;;;;;;;;15.70;59.68;99380.38;2071709;28;20088;-59
2022/03/11 02:45:25;;;;;;;;;;;;;;;15.70;59.68;99382.22;2068105;28;20389;-58
2022/03/11 02:46:25;;;;;;;;;;;;;;;15.70;59.77;99382.22;2073628;28;20002;-57
2022/03/11 02:47:27;;;;;;;;;;;;;;;15.69;59.72;99380.56;2073949;28;19933;-59
2022/03/11 02:48:27;;;;;;;;;;;;;;;15.68;59.55;99386.88;2069836;28;20387;-59
2022/03/11 02:49:29;;;;;;;;;;;;;;;15.67;59.70;99386.03;2072228;28;20356;-61
2022/03/11 02:50:29;;;;;;;;;;;;;;;15.67;59.78;99386.03;2074459;28;20202;-54
2022/03/11 02:51:31;;;;;;;;;;;;;;;15.67;59.66;99382.53;2075640;28;19925;-59
2022/03/11 02:52:31;;;;;;;;;;;;;;;15.65;59.81;99388.03;2071119;28;20155;-59
2022/03/11 02:53:37;;;;;;;;;;;;;;;15.64;59.81;99387.19;2070943;28;20112;-58
2022/03/11 02:54:39;;;;;;;;;;;;;;;15.64;59.84;99391.72;2070403;28;19934;-59
2022/03/11 02:55:41;;;;;;;;;;;;;;;15.63;59.75;99384.72;2071865;28;19956;-55
2022/03/11 02:56:41;;;;;;;;;;;;;;;15.63;59.77;99384.72;2069558;28;19952;-55
2022/03/11 02:57:43;;;;;;;;;;;;;;;15.62;59.73;99386.53;2074895;28;20520;-55
2022/03/11 02:58:43;;;;;;;;;;;;;;;15.62;59.74;99383.00;2073813;28;19979;-57
2022/03/11 02:59:45;;;;;;;;;;;;;;;15.61;59.79;99370.66;2072509;28;20101;-61
2022/03/11 03:00:46;;;;;;;;;;;;;;;15.59;59.73;99373.47;2072716;28;19926;-61
2022/03/11 03:01:47;;;;;;;;;;;;;;;15.59;59.80;99378.00;2073155;28;19934;-57
2022/03/11 03:02:48;;;;;;;;;;;;;;;15.59;59.70;99378.00;2071218;28;19986;-62
2022/03/11 03:03:49;;;;;;;;;;;;;;;15.58;59.86;99376.34;2066891;28;20343;-56
2022/03/11 03:04:50;;;;;;;;;;;;;;;15.57;59.84;99374.66;2073919;28;19979;-56
2022/03/11 03:05:51;;;;;;;;;;;;;;;15.56;59.81;99375.66;2075523;28;20493;-54
2022/03/11 03:06:52;;;;;;;;;;;;;;;15.56;59.94;99373.00;2075334;28;19925;-56
2022/03/11 03:07:54;;;;;;;;;;;;;;;15.55;59.92;99374.00;2073584;28;19925;-58
2022/03/11 03:08:54;;;;;;;;;;;;;;;15.56;59.82;99373.00;2072744;28;19929;-54
2022/03/11 03:09:58;;;;;;;;;;;;;;;15.57;59.87;99366.63;2072774;28;20318;-57
2022/03/11 03:10:59;;;;;;;;;;;;;;;15.57;59.64;99364.81;2072819;28;20004;-57
2022/03/11 03:12:00;;;;;;;;;;;;;;;15.58;59.56;99361.13;2069032;28;20552;-62
2022/03/11 03:13:02;;;;;;;;;;;;;;;15.61;59.72;99365.31;2071416;28;20318;-60
2022/03/11 03:14:04;;;;;;;;;;;;;;;15.60;59.80;99359.13;2072729;28;19930;-54
2022/03/11 03:15:04;;;;;;;;;;;;;;;15.62;59.74;99361.63;2070842;28;19930;-58
2022/03/11 03:16:06;;;;;;;;;;;;;;;15.63;59.71;99363.31;2073616;28;19926;-55
2022/03/11 03:17:07;;;;;;;;;;;;;;;15.62;59.65;99361.63;2073651;28;19933;-57
2022/03/11 03:18:08;;;;;;;;;;;;;;;15.63;59.71;99357.97;2077697;28;19929;-60
2022/03/11 03:19:09;;;;;;;;;;;;;;;15.63;59.68;99366.81;2071995;28;19933;-54
2022/03/11 03:20:12;;;;;;;;;;;;;;;15.63;59.64;99363.31;2072443;28;19929;-58
2022/03/11 03:21:12;;;;;;;;;;;;;;;15.64;59.66;99359.63;2075126;28;19940;-59
2022/03/11 03:22:14;;;;;;;;;;;;;;;15.63;59.72;99360.63;2064483;28;20036;-57
2022/03/11 03:23:15;;;;;;;;;;;;;;;15.64;59.62;99362.31;2071553;28;19933;-56
2022/03/11 03:24:16;;;;;;;;;;;;;;;15.64;59.54;99364.97;2073681;28;20872;-62
2022/03/11 03:25:18;;;;;;;;;;;;;;;15.65;59.62;99361.28;2070284;28;19987;-62
2022/03/11 03:26:20;;;;;;;;;;;;;;;15.65;59.47;99366.63;2074943;28;19933;-59
2022/03/11 03:27:20;;;;;;;;;;;;;;;15.64;59.61;99357.78;2070633;28;20270;-62
2022/03/11 03:28:22;;;;;;;;;;;;;;;15.65;59.65;99358.63;2070349;28;19929;-61
2022/03/11 03:29:23;;;;;;;;;;;;;;;15.64;59.53;99360.47;2074312;28;20040;-60
2022/03/11 03:30:24;;;;;;;;;;;;;;;15.65;59.61;99358.63;2071970;28;20262;-57
2022/03/11 03:31:25;;;;;;;;;;;;;;;15.65;59.62;99358.63;2065811;28;19933;-60
2022/03/11 03:32:26;;;;;;;;;;;;;;;15.65;59.56;99366.63;2073369;28;19933;-59
2022/03/11 03:33:27;;;;;;;;;;;;;;;15.64;59.54;99363.13;2073011;28;19947;-61
2022/03/11 03:34:30;;;;;;;;;;;;;;;15.65;59.60;99366.63;2073669;28;19983;-61
2022/03/11 03:35:30;;;;;;;;;;;;;;;15.64;59.63;99360.47;2070395;28;19925;-59
2022/03/11 03:36:32;;;;;;;;;;;;;;;15.65;59.53;99364.78;2074601;28;20388;-56
2022/03/11 03:37:34;;;;;;;;;;;;;;;15.65;59.58;99361.28;2073594;28;20445;-60
2022/03/11 03:38:36;;;;;;;;;;;;;;;15.64;59.63;99356.94;2073437;28;20288;-53
2022/03/11 03:39:37;;;;;;;;;;;;;;;15.64;59.63;99359.63;2071675;28;19933;-58
2022/03/11 03:40:40;;;;;;;;;;;;;;;15.64;59.58;99359.63;2071618;28;19933;-62
2022/03/11 03:41:40;;;;;;;;;;;;;;;15.65;59.48;99355.94;2067342;28;20001;-59
2022/03/11 03:42:45;;;;;;;;;;;;;;;15.63;59.65;99356.13;2077045;28;19929;-58
2022/03/11 03:43:46;;;;;;;;;;;;;;;15.65;59.46;99358.63;2074340;28;19929;-59
2022/03/11 03:44:47;;;;;;;;;;;;;;;15.64;59.62;99359.63;2074171;28;19929;-58
2022/03/11 03:45:49;;;;;;;;;;;;;;;15.64;59.63;99359.63;2076389;28;20359;-62
2022/03/11 03:46:49;;;;;;;;;;;;;;;15.63;59.65;99360.63;2073383;28;19925;-61
2022/03/11 03:47:51;;;;;;;;;;;;;;;15.63;59.54;99358.78;2065667;28;20429;-60
2022/03/11 03:48:51;;;;;;;;;;;;;;;15.63;59.58;99360.63;2074607;28;20065;-55
2022/03/11 03:49:53;;;;;;;;;;;;;;;15.63;59.45;99357.97;2072578;28;20285;-61
2022/03/11 03:50:53;;;;;;;;;;;;;;;15.63;59.56;99357.97;2072579;28;19928;-53
2022/03/11 03:51:55;;;;;;;;;;;;;;;15.63;59.51;99364.16;2074308;28;20088;-58
2022/03/11 03:52:56;;;;;;;;;;;;;;;15.62;59.53;99356.28;2077127;28;19926;-62
2022/03/11 03:53:57;;;;;;;;;;;;;;;15.61;59.47;99359.97;2075618;28;20010;-59
2022/03/11 03:54:58;;;;;;;;;;;;;;;15.61;59.56;99357.28;2076099;28;19929;-57
2022/03/11 03:56:00;;;;;;;;;;;;;;;15.61;59.48;99359.97;2065652;28;19933;-58
2022/03/11 03:57:01;;;;;;;;;;;;;;;15.61;59.65;99365.31;2078589;28;20360;-53
2022/03/11 03:58:03;;;;;;;;;;;;;;;15.60;59.63;99358.28;2076835;28;20169;-59
2022/03/11 03:59:04;;;;;;;;;;;;;;;15.61;59.60;99362.63;2075364;28;19971;-56
2022/03/11 04:00:08;;;;;;;;;;;;;;;15.60;59.62;99359.13;2074773;28;19926;-57
2022/03/11 04:01:08;;;;;;;;;;;;;;;15.59;59.53;99362.78;2072682;28;20383;-57
2022/03/11 04:02:10;;;;;;;;;;;;;;;15.58;59.59;99358.44;2072575;28;19927;-58
2022/03/11 04:03:11;;;;;;;;;;;;;;;15.59;59.62;99357.44;2077708;28;20036;-54
2022/03/11 04:04:12;;;;;;;;;;;;;;;15.59;59.59;99356.59;2072575;28;20390;-55
2022/03/11 04:05:14;;;;;;;;;;;;;;;15.58;59.59;99357.63;2063968;28;19929;-57
2022/03/11 04:06:15;;;;;;;;;;;;;;;15.59;59.53;99353.94;2072365;28;20415;-58
2022/03/11 04:07:16;;;;;;;;;;;;;;;15.57;59.63;99359.47;2073847;28;19964;-58
2022/03/11 04:08:17;;;;;;;;;;;;;;;15.58;59.81;99360.31;2071539;28;19934;-57
2022/03/11 04:09:18;;;;;;;;;;;;;;;15.57;59.64;99358.59;2072059;28;19960;-57
2022/03/11 04:10:20;;;;;;;;;;;;;;;15.57;59.50;99363.94;2071613;28;19979;-55
2022/03/11 04:11:22;;;;;;;;;;;;;;;15.56;59.62;99356.94;2075123;28;19991;-57
2022/03/11 04:12:24;;;;;;;;;;;;;;;15.57;59.63;99363.94;2075792;28;19940;-59
2022/03/11 04:13:24;;;;;;;;;;;;;;;15.56;59.56;99362.28;2070510;28;19933;-57
2022/03/11 04:14:27;;;;;;;;;;;;;;;15.56;59.63;99362.28;2063866;28;20294;-63
2022/03/11 04:15:28;;;;;;;;;;;;;;;15.55;59.50;99357.97;2075911;28;19925;-54
2022/03/11 04:16:29;;;;;;;;;;;;;;;15.55;59.62;99355.28;2074495;28;19929;-55
2022/03/11 04:17:31;;;;;;;;;;;;;;;15.55;59.56;99365.97;2069447;28;20321;-59
2022/03/11 04:18:31;;;;;;;;;;;;;;;15.55;59.60;99355.28;2073591;28;19964;-50
2022/03/11 04:19:33;;;;;;;;;;;;;;;15.54;59.61;99358.94;2072564;28;19929;-60
2022/03/11 04:20:34;;;;;;;;;;;;;;;15.55;59.62;99365.97;2073095;28;19968;-60
2022/03/11 04:21:36;;;;;;;;;;;;;;;15.53;59.66;99362.63;2074470;28;19929;-56
2022/03/11 04:22:40;;;;;;;;;;;;;;;15.54;59.59;99364.28;2066307;28;20136;-63
2022/03/11 04:23:41;;;;;;;;;;;;;;;15.52;59.69;99366.31;2074188;28;19975;-61
2022/03/11 04:24:42;;;;;;;;;;;;;;;15.52;59.61;99364.47;2073360;28;19937;-57
2022/03/11 04:25:43;;;;;;;;;;;;;;;15.51;59.68;99365.44;2073403;28;19925;-57
2022/03/11 04:26:45;;;;;;;;;;;;;;;15.50;59.63;99366.47;2073903;28;19936;-57
2022/03/11 04:27:47;;;;;;;;;;;;;;;15.52;59.60;99366.31;2074429;28;19975;-56
2022/03/11 04:28:47;;;;;;;;;;;;;;;15.52;59.49;99371.66;2071909;28;19932;-54
2022/03/11 04:29:49;;;;;;;;;;;;;;;15.50;59.62;99376.34;2074841;28;20694;-56
2022/03/11 04:30:50;;;;;;;;;;;;;;;15.49;59.60;99371.97;2072151;28;19925;-57
2022/03/11 04:31:51;;;;;;;;;;;;;;;15.49;59.66;99371.97;2069707;28;20016;-56
2022/03/11 04:32:52;;;;;;;;;;;;;;;15.50;59.64;99376.34;2075460;28;19929;-57
2022/03/11 04:33:55;;;;;;;;;;;;;;;15.48;59.63;99372.97;2074129;28;19955;-58
2022/03/11 04:34:56;;;;;;;;;;;;;;;15.48;59.62;99372.97;2071424;28;19932;-61
2022/03/11 04:35:58;;;;;;;;;;;;;;;15.47;59.56;99374.81;2071665;28;20368;-52
2022/03/11 04:36:59;;;;;;;;;;;;;;;15.46;59.64;99370.50;2075630;28;20311;-61
2022/03/11 04:38:00;;;;;;;;;;;;;;;15.46;59.65;99372.28;2073019;28;19936;-56
2022/03/11 04:39:02;;;;;;;;;;;;;;;15.47;59.50;99368.66;2076507;28;19964;-54
2022/03/11 04:40:03;;;;;;;;;;;;;;;15.46;59.63;99365.13;2065732;28;19960;-62
2022/03/11 04:41:05;;;;;;;;;;;;;;;15.47;59.65;99365.97;2074569;28;20460;-58
2022/03/11 04:42:09;;;;;;;;;;;;;;;15.45;59.61;99371.47;2075033;28;19925;-54
2022/03/11 04:43:10;;;;;;;;;;;;;;;15.45;59.76;99375.97;2069828;28;19925;-56
2022/03/11 04:44:11;;;;;;;;;;;;;;;15.44;59.62;99369.81;2073124;28;20027;-58
2022/03/11 04:45:12;;;;;;;;;;;;;;;15.44;59.62;99377.00;2073916;28;19929;-55
2022/03/11 04:46:13;;;;;;;;;;;;;;;15.43;59.61;99378.81;2073415;28;20493;-56
2022/03/11 04:47:14;;;;;;;;;;;;;;;15.42;59.53;99383.31;2071802;28;19935;-52
2022/03/11 04:48:15;;;;;;;;;;;;;;;15.42;59.60;99377.16;2073700;28;19952;-56
2022/03/11 04:49:16;;;;;;;;;;;;;;;15.41;59.51;99373.66;2064462;28;19934;-59
2022/03/11 04:50:17;;;;;;;;;;;;;;;15.41;59.50;99376.31;2071170;28;19972;-56
2022/03/11 04:51:20;;;;;;;;;;;;;;;15.40;59.57;99379.97;2067781;28;19925;-54
2022/03/11 04:52:21;;;;;;;;;;;;;;;15.40;59.61;99377.28;2075341;28;19932;-59
2022/03/11 04:53:23;;;;;;;;;;;;;;;15.39;59.67;99378.31;2071656;28;20420;-59
2022/03/11 04:54:24;;;;;;;;;;;;;;;15.39;59.71;99378.31;2072035;28;19932;-54
2022/03/11 04:55:26;;;;;;;;;;;;;;;15.39;59.58;99380.97;2073952;28;19925;-57
2022/03/11 04:56:26;;;;;;;;;;;;;;;15.38;59.58;99382.00;2076785;28;19940;-61
2022/03/11 04:57:29;;;;;;;;;;;;;;;15.39;59.53;99382.81;2069435;28;20372;-59
2022/03/11 04:58:30;;;;;;;;;;;;;;;15.37;59.64;99380.31;2076602;28;19932;-59
2022/03/11 04:59:31;;;;;;;;;;;;;;;15.36;59.66;99381.31;2068768;28;20188;-54
2022/03/11 05:00:32;;;;;;;;;;;;;;;15.36;59.65;99386.66;2070987;28;20065;-55
2022/03/11 05:01:33;;;;;;;;;;;;;;;15.36;59.69;99381.31;2074207;28;19945;-53
2022/03/11 05:02:34;;;;;;;;;;;;;;;15.36;59.60;99381.31;2072772;28;19991;-56
2022/03/11 05:03:36;;;;;;;;;;;;;;;15.35;59.68;99384.13;2069076;28;19937;-54
2022/03/11 05:04:36;;;;;;;;;;;;;;;15.35;59.61;99386.81;2069991;28;19929;-58
2022/03/11 05:05:38;;;;;;;;;;;;;;;15.35;59.72;99384.13;2072192;28;19925;-52
2022/03/11 05:06:38;;;;;;;;;;;;;;;15.34;59.58;99382.47;2071124;28;19940;-54
2022/03/11 05:07:40;;;;;;;;;;;;;;;15.35;59.70;99387.66;2070454;28;19947;-62
2022/03/11 05:08:41;;;;;;;;;;;;;;;15.35;59.64;99382.31;2063331;28;21225;-56
2022/03/11 05:09:42;;;;;;;;;;;;;;;15.37;59.67;99384.81;2073011;28;19935;-56
2022/03/11 05:10:44;;;;;;;;;;;;;;;15.39;59.64;99377.47;2073879;28;19940;-59
2022/03/11 05:11:45;;;;;;;;;;;;;;;15.41;59.62;99387.00;2069655;28;20539;-57
2022/03/11 05:12:47;;;;;;;;;;;;;;;15.42;59.61;99396.69;2069871;28;19936;-60
2022/03/11 05:13:49;;;;;;;;;;;;;;;15.46;59.55;99383.00;2071776;28;19987;-60
2022/03/11 05:14:49;;;;;;;;;;;;;;;15.48;59.70;99387.19;2072162;28;20022;-54
2022/03/11 05:15:51;;;;;;;;;;;;;;;15.53;59.56;99389.38;2073684;28;19929;-56
2022/03/11 05:16:51;;;;;;;;;;;;;;;15.55;59.66;99385.53;2072004;28;20259;-53
2022/03/11 05:17:53;;;;;;;;;;;;;;;15.57;59.83;99390.69;2062762;28;19929;-60
2022/03/11 05:18:54;;;;;;;;;;;;;;;15.60;59.68;99385.00;2072737;28;20360;-59
2022/03/11 05:19:55;;;;;;;;;;;;;;;15.63;59.78;99390.06;2075011;28;19929;-58